sensor_id;sensor_type;location;lat;lon;timestamp;pressure;altitude;pressure_sealevel;temperature;humidity
13209;BME280;6669;42.678;23.332;2023-05-11T00:01:27;94735.63;;;9.11;100.00
13209;BME280;6669;42.678;23.332;2023-05-11T00:03:55;94735.13;;;9.07;100.00
13209;BME280;6669;42.678;23.332;2023-05-11T00:06:23;94733.84;;;9.03;100.00
13209;BME280;6669;42.678;23.332;2023-05-11T00:08:51;94743.56;;;9.01;100.00
13209;BME280;6669;42.678;23.332;2023-05-11T00:11:21;94738.22;;;9.03;100.00
13209;BME280;6669;42.678;23.332;2023-05-11T00:13:49;94743.91;;;9.14;100.00
13209;BME280;6669;42.678;23.332;2023-05-11T00:16:17;94745.53;;;9.24;100.00
13209;BME280;6669;42.678;23.332;2023-05-11T00:18:45;94737.63;;;9.25;100.00
13209;BME280;6669;42.678;23.332;2023-05-11T00:21:14;94737.94;;;9.14;100.00
13209;BME280;6669;42.678;23.332;2023-05-11T00:23:42;94737.44;;;9.19;100.00
13209;BME280;6669;42.678;23.332;2023-05-11T00:26:10;94740.19;;;9.17;100.00
13209;BME280;6669;42.678;23.332;2023-05-11T00:28:39;94739.06;;;9.20;100.00
13209;BME280;6669;42.678;23.332;2023-05-11T00:31:07;94740.53;;;9.14;100.00
13209;BME280;6669;42.678;23.332;2023-05-11T00:33:35;94744.88;;;9.13;100.00
13209;BME280;6669;42.678;23.332;2023-05-11T00:36:04;94740.19;;;9.09;100.00
13209;BME280;6669;42.678;23.332;2023-05-11T00:38:32;94734.84;;;9.10;100.00
13209;BME280;6669;42.678;23.332;2023-05-11T00:41:02;94739.19;;;9.10;100.00
13209;BME280;6669;42.678;23.332;2023-05-11T00:43:30;94732.72;;;8.97;100.00
13209;BME280;6669;42.678;23.332;2023-05-11T00:45:59;94747.47;;;9.05;100.00
13209;BME280;6669;42.678;23.332;2023-05-11T00:48:27;94745.50;;;9.07;100.00
13209;BME280;6669;42.678;23.332;2023-05-11T00:50:57;94740.31;;;9.07;100.00
13209;BME280;6669;42.678;23.332;2023-05-11T00:53:25;94738.53;;;8.91;100.00
13209;BME280;6669;42.678;23.332;2023-05-11T00:55:53;94747.28;;;8.90;100.00
13209;BME280;6669;42.678;23.332;2023-05-11T00:58:22;94744.69;;;8.90;100.00
13209;BME280;6669;42.678;23.332;2023-05-11T01:00:50;94753.75;;;8.86;100.00
13209;BME280;6669;42.678;23.332;2023-05-11T01:03:19;94755.38;;;8.87;100.00
13209;BME280;6669;42.678;23.332;2023-05-11T01:05:51;94753.25;;;8.82;100.00
13209;BME280;6669;42.678;23.332;2023-05-11T01:08:23;94756.31;;;8.78;100.00
13209;BME280;6669;42.678;23.332;2023-05-11T01:11:02;94752.06;;;8.69;100.00
13209;BME280;6669;42.678;23.332;2023-05-11T01:13:33;94751.28;;;8.68;100.00
13209;BME280;6669;42.678;23.332;2023-05-11T01:16:08;94740.06;;;8.67;100.00
13209;BME280;6669;42.678;23.332;2023-05-11T01:18:44;94745.75;;;8.71;100.00
13209;BME280;6669;42.678;23.332;2023-05-11T01:21:15;94748.00;;;8.66;100.00
13209;BME280;6669;42.678;23.332;2023-05-11T01:26:50;94748.34;;;8.63;100.00
13209;BME280;6669;42.678;23.332;2023-05-11T01:29:39;94756.41;;;8.60;100.00
13209;BME280;6669;42.678;23.332;2023-05-11T01:32:14;94753.81;;;8.60;100.00
13209;BME280;6669;42.678;23.332;2023-05-11T01:34:44;94753.31;;;8.56;100.00
13209;BME280;6669;42.678;23.332;2023-05-11T01:37:15;94748.78;;;8.58;100.00
13209;BME280;6669;42.678;23.332;2023-05-11T01:39:50;94751.22;;;8.60;100.00
13209;BME280;6669;42.678;23.332;2023-05-11T01:42:23;94731.38;;;8.42;100.00
13209;BME280;6669;42.678;23.332;2023-05-11T01:44:53;94748.63;;;8.52;100.00
13209;BME280;6669;42.678;23.332;2023-05-11T01:47:25;94760.53;;;8.44;100.00
13209;BME280;6669;42.678;23.332;2023-05-11T01:49:55;94756.31;;;8.43;100.00
13209;BME280;6669;42.678;23.332;2023-05-11T01:52:25;94744.97;;;8.44;100.00
13209;BME280;6669;42.678;23.332;2023-05-11T01:54:55;94742.03;;;8.39;100.00
13209;BME280;6669;42.678;23.332;2023-05-11T01:57:24;94738.09;;;8.27;100.00
13209;BME280;6669;42.678;23.332;2023-05-11T01:59:54;94755.97;;;8.38;100.00
13209;BME280;6669;42.678;23.332;2023-05-11T02:02:25;94752.56;;;8.38;100.00
13209;BME280;6669;42.678;23.332;2023-05-11T02:04:54;94755.97;;;8.38;100.00
13209;BME280;6669;42.678;23.332;2023-05-11T02:07:25;94757.41;;;8.32;100.00
13209;BME280;6669;42.678;23.332;2023-05-11T02:09:56;94755.94;;;8.30;100.00
13209;BME280;6669;42.678;23.332;2023-05-11T02:12:25;94737.81;;;8.30;100.00
13209;BME280;6669;42.678;23.332;2023-05-11T02:14:54;94753.34;;;8.30;100.00
13209;BME280;6669;42.678;23.332;2023-05-11T02:17:25;94758.31;;;8.23;100.00
13209;BME280;6669;42.678;23.332;2023-05-11T02:19:54;94748.09;;;8.22;100.00
13209;BME280;6669;42.678;23.332;2023-05-11T02:22:23;94751.38;;;8.24;100.00
13209;BME280;6669;42.678;23.332;2023-05-11T02:24:52;94742.16;;;8.29;100.00
13209;BME280;6669;42.678;23.332;2023-05-11T02:27:20;94745.22;;;8.25;100.00
13209;BME280;6669;42.678;23.332;2023-05-11T02:29:48;94736.00;;;8.22;100.00
13209;BME280;6669;42.678;23.332;2023-05-11T02:32:17;94746.53;;;8.29;100.00
13209;BME280;6669;42.678;23.332;2023-05-11T02:34:53;94735.22;;;8.30;100.00
13209;BME280;6669;42.678;23.332;2023-05-11T02:37:26;94744.03;;;8.45;100.00
13209;BME280;6669;42.678;23.332;2023-05-11T02:39:58;94741.72;;;8.42;100.00
13209;BME280;6669;42.678;23.332;2023-05-11T02:42:29;94753.22;;;8.40;100.00
13209;BME280;6669;42.678;23.332;2023-05-11T02:45:03;94753.38;;;8.38;100.00
13209;BME280;6669;42.678;23.332;2023-05-11T02:47:35;94738.59;;;8.30;100.00
13209;BME280;6669;42.678;23.332;2023-05-11T02:50:08;94749.97;;;8.38;100.00
13209;BME280;6669;42.678;23.332;2023-05-11T02:52:39;94745.31;;;8.41;100.00
13209;BME280;6669;42.678;23.332;2023-05-11T02:55:08;94749.88;;;8.47;100.00
13209;BME280;6669;42.678;23.332;2023-05-11T02:57:37;94749.66;;;8.41;100.00
13209;BME280;6669;42.678;23.332;2023-05-11T03:00:07;94744.97;;;8.44;100.00
13209;BME280;6669;42.678;23.332;2023-05-11T03:02:37;94744.19;;;8.44;100.00
13209;BME280;6669;42.678;23.332;2023-05-11T03:05:07;94727.28;;;8.31;100.00
13209;BME280;6669;42.678;23.332;2023-05-11T03:07:35;94734.50;;;8.46;100.00
13209;BME280;6669;42.678;23.332;2023-05-11T03:10:04;94741.44;;;8.45;100.00
13209;BME280;6669;42.678;23.332;2023-05-11T03:12:33;94740.50;;;8.46;100.00
13209;BME280;6669;42.678;23.332;2023-05-11T03:15:02;94739.13;;;8.42;100.00
13209;BME280;6669;42.678;23.332;2023-05-11T03:17:31;94740.25;;;8.40;100.00
13209;BME280;6669;42.678;23.332;2023-05-11T03:20:00;94740.94;;;8.42;100.00
13209;BME280;6669;42.678;23.332;2023-05-11T03:22:31;94747.72;;;8.43;100.00
13209;BME280;6669;42.678;23.332;2023-05-11T03:25:02;94747.38;;;8.38;100.00
13209;BME280;6669;42.678;23.332;2023-05-11T03:27:30;94736.97;;;8.29;100.00
13209;BME280;6669;42.678;23.332;2023-05-11T03:30:02;94747.69;;;8.34;100.00
13209;BME280;6669;42.678;23.332;2023-05-11T03:32:31;94746.81;;;8.26;100.00
13209;BME280;6669;42.678;23.332;2023-05-11T03:34:59;94749.75;;;8.31;100.00
13209;BME280;6669;42.678;23.332;2023-05-11T03:37:28;94753.19;;;8.31;100.00
13209;BME280;6669;42.678;23.332;2023-05-11T03:40:00;94750.09;;;8.28;100.00
13209;BME280;6669;42.678;23.332;2023-05-11T03:42:29;94743.09;;;8.20;100.00
13209;BME280;6669;42.678;23.332;2023-05-11T03:44:59;94750.78;;;8.38;100.00
13209;BME280;6669;42.678;23.332;2023-05-11T03:47:28;94750.59;;;8.31;100.00
13209;BME280;6669;42.678;23.332;2023-05-11T03:49:58;94760.13;;;8.31;100.00
13209;BME280;6669;42.678;23.332;2023-05-11T03:52:28;94759.47;;;8.29;100.00
13209;BME280;6669;42.678;23.332;2023-05-11T03:54:56;94747.16;;;8.23;100.00
13209;BME280;6669;42.678;23.332;2023-05-11T03:57:26;94739.19;;;8.16;100.00
13209;BME280;6669;42.678;23.332;2023-05-11T03:59:54;94754.84;;;8.41;100.00
13209;BME280;6669;42.678;23.332;2023-05-11T04:02:22;94760.63;;;8.34;100.00
13209;BME280;6669;42.678;23.332;2023-05-11T04:04:50;94739.31;;;8.14;100.00
13209;BME280;6669;42.678;23.332;2023-05-11T04:07:19;94767.13;;;8.39;100.00
13209;BME280;6669;42.678;23.332;2023-05-11T04:09:47;94768.91;;;8.38;100.00
13209;BME280;6669;42.678;23.332;2023-05-11T04:12:15;94766.31;;;8.38;100.00
13209;BME280;6669;42.678;23.332;2023-05-11T04:14:44;94770.69;;;8.38;100.00
13209;BME280;6669;42.678;23.332;2023-05-11T04:17:12;94771.25;;;8.23;100.00
13209;BME280;6669;42.678;23.332;2023-05-11T04:19:40;94763.66;;;8.22;100.00
13209;BME280;6669;42.678;23.332;2023-05-11T04:22:08;94762.97;;;8.19;100.00
13209;BME280;6669;42.678;23.332;2023-05-11T04:24:38;94771.25;;;8.23;100.00
13209;BME280;6669;42.678;23.332;2023-05-11T04:27:06;94775.63;;;8.23;100.00
13209;BME280;6669;42.678;23.332;2023-05-11T04:29:34;94777.63;;;8.29;100.00
13209;BME280;6669;42.678;23.332;2023-05-11T04:32:03;94763.81;;;8.20;100.00
13209;BME280;6669;42.678;23.332;2023-05-11T04:34:31;94771.94;;;8.25;100.00
13209;BME280;6669;42.678;23.332;2023-05-11T04:36:59;94778.91;;;8.33;100.00
13209;BME280;6669;42.678;23.332;2023-05-11T04:39:32;94783.75;;;8.28;100.00
13209;BME280;6669;42.678;23.332;2023-05-11T04:42:01;94772.72;;;8.26;100.00
13209;BME280;6669;42.678;23.332;2023-05-11T04:44:28;94783.09;;;8.26;100.00
13209;BME280;6669;42.678;23.332;2023-05-11T04:46:57;94768.16;;;8.19;100.00
13209;BME280;6669;42.678;23.332;2023-05-11T04:49:26;94788.25;;;8.26;100.00
13209;BME280;6669;42.678;23.332;2023-05-11T04:51:54;94795.91;;;8.27;100.00
13209;BME280;6669;42.678;23.332;2023-05-11T04:54:22;94785.69;;;8.26;100.00
13209;BME280;6669;42.678;23.332;2023-05-11T04:56:50;94773.66;;;8.16;100.00
13209;BME280;6669;42.678;23.332;2023-05-11T04:59:18;94774.88;;;8.04;100.00
13209;BME280;6669;42.678;23.332;2023-05-11T05:01:46;94782.91;;;8.19;100.00
13209;BME280;6669;42.678;23.332;2023-05-11T05:04:14;94794.00;;;8.11;100.00
13209;BME280;6669;42.678;23.332;2023-05-11T05:06:44;94797.91;;;8.15;100.00
13209;BME280;6669;42.678;23.332;2023-05-11T05:09:12;94796.69;;;8.28;100.00
13209;BME280;6669;42.678;23.332;2023-05-11T05:11:40;94808.03;;;8.27;100.00
13209;BME280;6669;42.678;23.332;2023-05-11T05:14:08;94795.38;;;8.24;100.00
13209;BME280;6669;42.678;23.332;2023-05-11T05:16:36;94806.91;;;8.29;100.00
13209;BME280;6669;42.678;23.332;2023-05-11T05:19:04;94797.16;;;8.23;100.00
13209;BME280;6669;42.678;23.332;2023-05-11T05:21:32;94806.38;;;8.26;100.00
13209;BME280;6669;42.678;23.332;2023-05-11T05:24:03;94804.13;;;8.23;100.00
13209;BME280;6669;42.678;23.332;2023-05-11T05:26:32;94783.84;;;8.18;100.00
13209;BME280;6669;42.678;23.332;2023-05-11T05:29:00;94802.19;;;8.25;100.00
13209;BME280;6669;42.678;23.332;2023-05-11T05:31:28;94812.03;;;8.21;100.00
13209;BME280;6669;42.678;23.332;2023-05-11T05:33:56;94815.94;;;8.25;100.00
13209;BME280;6669;42.678;23.332;2023-05-11T05:36:24;94811.91;;;8.31;100.00
13209;BME280;6669;42.678;23.332;2023-05-11T05:38:52;94815.31;;;8.49;100.00
13209;BME280;6669;42.678;23.332;2023-05-11T05:41:22;94806.72;;;8.49;100.00
13209;BME280;6669;42.678;23.332;2023-05-11T05:43:50;94816.31;;;8.57;100.00
13209;BME280;6669;42.678;23.332;2023-05-11T05:46:18;94812.28;;;8.62;100.00
13209;BME280;6669;42.678;23.332;2023-05-11T05:48:46;94773.22;;;8.29;100.00
13209;BME280;6669;42.678;23.332;2023-05-11T05:51:14;94815.63;;;8.46;100.00
13209;BME280;6669;42.678;23.332;2023-05-11T05:53:42;94808.56;;;8.65;100.00
13209;BME280;6669;42.678;23.332;2023-05-11T05:56:10;94827.16;;;8.60;100.00
13209;BME280;6669;42.678;23.332;2023-05-11T05:58:39;94827.16;;;8.60;100.00
13209;BME280;6669;42.678;23.332;2023-05-11T06:01:09;94819.88;;;8.56;100.00
13209;BME280;6669;42.678;23.332;2023-05-11T06:03:37;94796.72;;;8.36;100.00
13209;BME280;6669;42.678;23.332;2023-05-11T06:06:06;94828.81;;;8.35;100.00
13209;BME280;6669;42.678;23.332;2023-05-11T06:08:34;94827.28;;;8.50;100.00
13209;BME280;6669;42.678;23.332;2023-05-11T06:11:02;94827.59;;;8.47;100.00
13209;BME280;6669;42.678;23.332;2023-05-11T06:13:30;94827.38;;;8.41;100.00
13209;BME280;6669;42.678;23.332;2023-05-11T06:15:59;94829.13;;;8.58;100.00
13209;BME280;6669;42.678;23.332;2023-05-11T06:18:27;94833.53;;;8.66;100.00
13209;BME280;6669;42.678;23.332;2023-05-11T06:20:55;94843.03;;;8.57;100.00
13209;BME280;6669;42.678;23.332;2023-05-11T06:23:23;94836.13;;;8.66;100.00
13209;BME280;6669;42.678;23.332;2023-05-11T06:25:51;94852.28;;;8.60;100.00
13209;BME280;6669;42.678;23.332;2023-05-11T06:28:19;94850.34;;;8.62;100.00
13209;BME280;6669;42.678;23.332;2023-05-11T06:30:50;94837.28;;;8.45;100.00
13209;BME280;6669;42.678;23.332;2023-05-11T06:33:19;94854.84;;;8.52;100.00
13209;BME280;6669;42.678;23.332;2023-05-11T06:35:47;94853.22;;;8.50;100.00
13209;BME280;6669;42.678;23.332;2023-05-11T06:38:15;94850.22;;;8.45;100.00
13209;BME280;6669;42.678;23.332;2023-05-11T06:40:43;94846.72;;;8.46;100.00
13209;BME280;6669;42.678;23.332;2023-05-11T06:43:11;94826.81;;;8.29;100.00
13209;BME280;6669;42.678;23.332;2023-05-11T06:45:39;94826.97;;;8.27;100.00
13209;BME280;6669;42.678;23.332;2023-05-11T06:48:08;94845.06;;;8.45;100.00
13209;BME280;6669;42.678;23.332;2023-05-11T06:50:37;94850.47;;;8.60;100.00
13209;BME280;6669;42.678;23.332;2023-05-11T06:53:06;94852.78;;;8.63;100.00
13209;BME280;6669;42.678;23.332;2023-05-11T06:55:36;94853.41;;;8.57;100.00
13209;BME280;6669;42.678;23.332;2023-05-11T06:58:04;94846.81;;;8.63;100.00
13209;BME280;6669;42.678;23.332;2023-05-11T07:00:32;94848.06;;;8.59;100.00
13209;BME280;6669;42.678;23.332;2023-05-11T07:03:00;94852.88;;;8.80;100.00
13209;BME280;6669;42.678;23.332;2023-05-11T07:05:28;94839.22;;;8.78;100.00
13209;BME280;6669;42.678;23.332;2023-05-11T07:07:58;94844.72;;;9.09;100.00
13209;BME280;6669;42.678;23.332;2023-05-11T07:10:26;94813.59;;;9.01;100.00
13209;BME280;6669;42.678;23.332;2023-05-11T07:12:54;94822.03;;;9.20;100.00
13209;BME280;6669;42.678;23.332;2023-05-11T07:15:22;94845.81;;;9.49;100.00
13209;BME280;6669;42.678;23.332;2023-05-11T07:17:50;94838.97;;;9.57;100.00
13209;BME280;6669;42.678;23.332;2023-05-11T07:20:20;94835.41;;;9.49;100.00
13209;BME280;6669;42.678;23.332;2023-05-11T07:22:48;94846.63;;;9.83;100.00
13209;BME280;6669;42.678;23.332;2023-05-11T07:25:17;94853.63;;;9.82;100.00
13209;BME280;6669;42.678;23.332;2023-05-11T07:27:45;94853.13;;;9.95;100.00
13209;BME280;6669;42.678;23.332;2023-05-11T07:30:13;94862.22;;;10.00;100.00
13209;BME280;6669;42.678;23.332;2023-05-11T07:32:44;94836.25;;;9.91;100.00
13209;BME280;6669;42.678;23.332;2023-05-11T07:35:12;94860.25;;;10.26;100.00
13209;BME280;6669;42.678;23.332;2023-05-11T07:37:41;94833.16;;;10.21;100.00
13209;BME280;6669;42.678;23.332;2023-05-11T07:40:09;94860.59;;;10.48;100.00
13209;BME280;6669;42.678;23.332;2023-05-11T07:42:39;94848.06;;;10.52;100.00
13209;BME280;6669;42.678;23.332;2023-05-11T07:45:08;94864.22;;;10.87;100.00
13209;BME280;6669;42.678;23.332;2023-05-11T07:47:36;94852.22;;;10.86;100.00
13209;BME280;6669;42.678;23.332;2023-05-11T07:50:05;94862.38;;;11.04;100.00
13209;BME280;6669;42.678;23.332;2023-05-11T07:52:33;94867.13;;;11.00;100.00
13209;BME280;6669;42.678;23.332;2023-05-11T07:55:01;94864.91;;;11.20;100.00
13209;BME280;6669;42.678;23.332;2023-05-11T07:57:29;94864.78;;;11.13;100.00
13209;BME280;6669;42.678;23.332;2023-05-11T07:59:59;94872.75;;;11.12;100.00
13209;BME280;6669;42.678;23.332;2023-05-11T08:02:27;94866.41;;;11.15;100.00
13209;BME280;6669;42.678;23.332;2023-05-11T08:04:55;94865.84;;;11.27;100.00
13209;BME280;6669;42.678;23.332;2023-05-11T08:07:23;94864.31;;;11.41;100.00
13209;BME280;6669;42.678;23.332;2023-05-11T08:09:51;94860.16;;;11.55;100.00
13209;BME280;6669;42.678;23.332;2023-05-11T08:12:19;94865.97;;;11.66;100.00
13209;BME280;6669;42.678;23.332;2023-05-11T08:14:47;94867.56;;;11.75;100.00
13209;BME280;6669;42.678;23.332;2023-05-11T08:17:17;94867.94;;;11.64;100.00
13209;BME280;6669;42.678;23.332;2023-05-11T08:19:45;94863.50;;;11.72;100.00
13209;BME280;6669;42.678;23.332;2023-05-11T08:22:13;94868.16;;;11.54;100.00
13209;BME280;6669;42.678;23.332;2023-05-11T08:24:41;94872.31;;;11.63;100.00
13209;BME280;6669;42.678;23.332;2023-05-11T08:27:09;94835.06;;;11.39;100.00
13209;BME280;6669;42.678;23.332;2023-05-11T08:29:37;94847.44;;;11.60;100.00
13209;BME280;6669;42.678;23.332;2023-05-11T08:32:05;94870.84;;;11.69;100.00
13209;BME280;6669;42.678;23.332;2023-05-11T08:34:35;94850.28;;;11.51;100.00
13209;BME280;6669;42.678;23.332;2023-05-11T08:37:03;94834.72;;;11.42;100.00
13209;BME280;6669;42.678;23.332;2023-05-11T08:39:31;94869.19;;;11.76;100.00
13209;BME280;6669;42.678;23.332;2023-05-11T08:42:04;94870.38;;;12.12;100.00
13209;BME280;6669;42.678;23.332;2023-05-11T08:44:34;94871.09;;;12.29;100.00
13209;BME280;6669;42.678;23.332;2023-05-11T08:47:05;94848.69;;;11.96;100.00
13209;BME280;6669;42.678;23.332;2023-05-11T08:49:50;94863.72;;;12.09;100.00
13209;BME280;6669;42.678;23.332;2023-05-11T08:52:19;94857.91;;;12.07;100.00
13209;BME280;6669;42.678;23.332;2023-05-11T08:54:47;94859.13;;;12.19;100.00
13209;BME280;6669;42.678;23.332;2023-05-11T08:57:16;94843.03;;;12.16;100.00
13209;BME280;6669;42.678;23.332;2023-05-11T08:59:46;94862.75;;;12.33;100.00
13209;BME280;6669;42.678;23.332;2023-05-11T09:02:17;94857.25;;;12.43;100.00
13209;BME280;6669;42.678;23.332;2023-05-11T09:04:46;94835.06;;;12.32;100.00
13209;BME280;6669;42.678;23.332;2023-05-11T09:07:18;94851.28;;;12.57;100.00
13209;BME280;6669;42.678;23.332;2023-05-11T09:09:46;94861.34;;;12.61;100.00
13209;BME280;6669;42.678;23.332;2023-05-11T09:12:15;94859.91;;;12.58;100.00
13209;BME280;6669;42.678;23.332;2023-05-11T09:14:43;94844.25;;;12.73;100.00
13209;BME280;6669;42.678;23.332;2023-05-11T09:17:12;94843.72;;;13.07;100.00
13209;BME280;6669;42.678;23.332;2023-05-11T09:19:58;94828.88;;;12.93;100.00
13209;BME280;6669;42.678;23.332;2023-05-11T09:22:31;94828.44;;;12.89;100.00
13209;BME280;6669;42.678;23.332;2023-05-11T09:25:02;94844.03;;;12.45;100.00
13209;BME280;6669;42.678;23.332;2023-05-11T09:27:30;94846.88;;;12.73;100.00
13209;BME280;6669;42.678;23.332;2023-05-11T09:30:09;94846.16;;;12.79;100.00
13209;BME280;6669;42.678;23.332;2023-05-11T09:32:48;94860.34;;;12.62;100.00
13209;BME280;6669;42.678;23.332;2023-05-11T09:35:21;94848.19;;;12.69;100.00
13209;BME280;6669;42.678;23.332;2023-05-11T09:38:00;94858.00;;;12.52;100.00
13209;BME280;6669;42.678;23.332;2023-05-11T09:40:31;94848.19;;;12.39;100.00
13209;BME280;6669;42.678;23.332;2023-05-11T09:43:00;94849.75;;;12.63;100.00
13209;BME280;6669;42.678;23.332;2023-05-11T09:45:36;94846.66;;;12.59;100.00
13209;BME280;6669;42.678;23.332;2023-05-11T09:48:06;94830.22;;;12.59;100.00
13209;BME280;6669;42.678;23.332;2023-05-11T09:50:34;94840.22;;;12.70;100.00
13209;BME280;6669;42.678;23.332;2023-05-11T09:53:04;94845.78;;;12.82;100.00
13209;BME280;6669;42.678;23.332;2023-05-11T09:55:32;94805.31;;;12.41;100.00
13209;BME280;6669;42.678;23.332;2023-05-11T09:58:00;94830.66;;;12.78;100.00
13209;BME280;6669;42.678;23.332;2023-05-11T10:00:29;94812.59;;;12.76;100.00
13209;BME280;6669;42.678;23.332;2023-05-11T10:03:05;94834.91;;;12.94;100.00
13209;BME280;6669;42.678;23.332;2023-05-11T10:05:35;94827.66;;;13.25;100.00
13209;BME280;6669;42.678;23.332;2023-05-11T10:08:05;94832.66;;;13.57;100.00
13209;BME280;6669;42.678;23.332;2023-05-11T10:10:33;94807.50;;;13.19;100.00
13209;BME280;6669;42.678;23.332;2023-05-11T10:13:02;94827.31;;;13.14;100.00
13209;BME280;6669;42.678;23.332;2023-05-11T10:15:32;94823.63;;;13.08;100.00
13209;BME280;6669;42.678;23.332;2023-05-11T10:18:05;94823.22;;;12.74;100.00
13209;BME280;6669;42.678;23.332;2023-05-11T10:20:33;94792.91;;;12.73;100.00
13209;BME280;6669;42.678;23.332;2023-05-11T10:23:02;94813.31;;;13.00;100.00
13209;BME280;6669;42.678;23.332;2023-05-11T10:25:32;94824.28;;;12.95;100.00
13209;BME280;6669;42.678;23.332;2023-05-11T10:28:01;94817.59;;;13.22;100.00
13209;BME280;6669;42.678;23.332;2023-05-11T10:30:30;94804.94;;;13.26;100.00
13209;BME280;6669;42.678;23.332;2023-05-11T10:32:59;94812.91;;;13.18;100.00
13209;BME280;6669;42.678;23.332;2023-05-11T10:35:28;94817.56;;;13.37;100.00
13209;BME280;6669;42.678;23.332;2023-05-11T10:37:57;94802.25;;;13.34;100.00
13209;BME280;6669;42.678;23.332;2023-05-11T10:40:25;94792.72;;;13.42;100.00
13209;BME280;6669;42.678;23.332;2023-05-11T10:43:13;94790.59;;;13.95;100.00
13209;BME280;6669;42.678;23.332;2023-05-11T10:45:48;94791.34;;;13.89;100.00
13209;BME280;6669;42.678;23.332;2023-05-11T10:48:34;94796.94;;;14.36;100.00
13209;BME280;6669;42.678;23.332;2023-05-11T10:54:25;94806.28;;;14.52;100.00
13209;BME280;6669;42.678;23.332;2023-05-11T11:00:25;94779.59;;;13.78;100.00
13209;BME280;6669;42.678;23.332;2023-05-11T11:03:10;94788.97;;;13.94;100.00
13209;BME280;6669;42.678;23.332;2023-05-11T11:05:38;94774.53;;;14.27;100.00
13209;BME280;6669;42.678;23.332;2023-05-11T11:08:09;94802.66;;;14.18;100.00
13209;BME280;6669;42.678;23.332;2023-05-11T11:10:38;94794.22;;;14.22;100.00
13209;BME280;6669;42.678;23.332;2023-05-11T11:13:10;94791.91;;;14.34;100.00
13209;BME280;6669;42.678;23.332;2023-05-11T11:16:11;94792.22;;;13.96;100.00
13209;BME280;6669;42.678;23.332;2023-05-11T11:18:42;94792.78;;;14.20;100.00
13209;BME280;6669;42.678;23.332;2023-05-11T11:21:10;94767.91;;;14.02;100.00
13209;BME280;6669;42.678;23.332;2023-05-11T11:23:43;94782.09;;;14.15;100.00
13209;BME280;6669;42.678;23.332;2023-05-11T11:26:12;94785.56;;;14.22;100.00
13209;BME280;6669;42.678;23.332;2023-05-11T11:29:08;94794.44;;;13.99;100.00
13209;BME280;6669;42.678;23.332;2023-05-11T11:31:39;94789.88;;;14.36;100.00
13209;BME280;6669;42.678;23.332;2023-05-11T11:34:34;94790.38;;;14.82;100.00
13209;BME280;6669;42.678;23.332;2023-05-11T11:37:06;94770.88;;;14.91;100.00
13209;BME280;6669;42.678;23.332;2023-05-11T11:39:46;94787.00;;;14.95;100.00
13209;BME280;6669;42.678;23.332;2023-05-11T11:42:17;94776.31;;;14.83;100.00
13209;BME280;6669;42.678;23.332;2023-05-11T11:44:45;94785.69;;;14.70;100.00
13209;BME280;6669;42.678;23.332;2023-05-11T11:47:16;94750.88;;;14.42;100.00
13209;BME280;6669;42.678;23.332;2023-05-11T11:49:46;94784.94;;;14.48;100.00
13209;BME280;6669;42.678;23.332;2023-05-11T11:52:32;94782.91;;;14.44;100.00
13209;BME280;6669;42.678;23.332;2023-05-11T11:55:02;94772.56;;;14.35;100.00
13209;BME280;6669;42.678;23.332;2023-05-11T11:57:43;94756.38;;;14.18;100.00
13209;BME280;6669;42.678;23.332;2023-05-11T12:00:19;94789.66;;;14.31;100.00
13209;BME280;6669;42.678;23.332;2023-05-11T12:02:49;94775.13;;;13.94;100.00
13209;BME280;6669;42.678;23.332;2023-05-11T12:05:18;94779.19;;;14.03;100.00
13209;BME280;6669;42.678;23.332;2023-05-11T12:07:50;94776.31;;;13.69;100.00
13209;BME280;6669;42.678;23.332;2023-05-11T12:10:19;94772.63;;;13.85;100.00
13209;BME280;6669;42.678;23.332;2023-05-11T12:12:49;94780.25;;;13.87;100.00
13209;BME280;6669;42.678;23.332;2023-05-11T12:15:24;94783.22;;;13.77;100.00
13209;BME280;6669;42.678;23.332;2023-05-11T12:17:54;94749.41;;;13.76;100.00
13209;BME280;6669;42.678;23.332;2023-05-11T12:20:23;94775.75;;;13.74;100.00
13209;BME280;6669;42.678;23.332;2023-05-11T12:22:51;94769.28;;;13.70;100.00
13209;BME280;6669;42.678;23.332;2023-05-11T12:25:20;94758.66;;;13.35;100.00
13209;BME280;6669;42.678;23.332;2023-05-11T12:27:49;94747.75;;;13.46;100.00
13209;BME280;6669;42.678;23.332;2023-05-11T12:30:19;94756.09;;;13.56;100.00
13209;BME280;6669;42.678;23.332;2023-05-11T12:32:47;94740.50;;;13.63;100.00
13209;BME280;6669;42.678;23.332;2023-05-11T12:35:25;94756.75;;;13.87;100.00
13209;BME280;6669;42.678;23.332;2023-05-11T12:37:53;94748.16;;;13.93;100.00
13209;BME280;6669;42.678;23.332;2023-05-11T12:40:22;94740.00;;;14.03;100.00
13209;BME280;6669;42.678;23.332;2023-05-11T12:42:51;94747.50;;;14.13;100.00
13209;BME280;6669;42.678;23.332;2023-05-11T12:45:20;94737.38;;;14.03;100.00
13209;BME280;6669;42.678;23.332;2023-05-11T12:47:50;94729.09;;;13.71;100.00
13209;BME280;6669;42.678;23.332;2023-05-11T12:50:19;94736.75;;;13.51;100.00
13209;BME280;6669;42.678;23.332;2023-05-11T12:52:49;94739.63;;;13.56;100.00
13209;BME280;6669;42.678;23.332;2023-05-11T12:55:26;94730.13;;;13.33;100.00
13209;BME280;6669;42.678;23.332;2023-05-11T12:58:06;94729.84;;;13.21;100.00
13209;BME280;6669;42.678;23.332;2023-05-11T13:00:34;94714.47;;;13.12;100.00
13209;BME280;6669;42.678;23.332;2023-05-11T13:03:02;94729.38;;;13.18;100.00
13209;BME280;6669;42.678;23.332;2023-05-11T13:05:31;94717.91;;;13.12;100.00
13209;BME280;6669;42.678;23.332;2023-05-11T13:08:02;94724.44;;;12.86;100.00
13209;BME280;6669;42.678;23.332;2023-05-11T13:10:31;94715.06;;;12.92;100.00
13209;BME280;6669;42.678;23.332;2023-05-11T13:12:59;94712.03;;;12.88;100.00
13209;BME280;6669;42.678;23.332;2023-05-11T13:15:27;94709.94;;;12.84;100.00
13209;BME280;6669;42.678;23.332;2023-05-11T13:17:56;94714.25;;;12.91;100.00
13209;BME280;6669;42.678;23.332;2023-05-11T13:20:26;94709.78;;;13.07;100.00